sensor_id;sensor_type;location;lat;lon;timestamp;P1;durP1;ratioP1;P2;durP2;ratioP2
19043;SDS011;9654;52.302;8.120;2023-07-02T00:01:50;6.80;;;3.93;;
19043;SDS011;9654;52.302;8.120;2023-07-02T00:04:17;7.20;;;4.50;;
19043;SDS011;9654;52.302;8.120;2023-07-02T00:06:44;9.00;;;4.40;;
19043;SDS011;9654;52.302;8.120;2023-07-02T00:09:11;8.20;;;4.10;;
19043;SDS011;9654;52.302;8.120;2023-07-02T00:11:38;11.03;;;4.90;;
19043;SDS011;9654;52.302;8.120;2023-07-02T00:14:07;6.33;;;4.43;;
19043;SDS011;9654;52.302;8.120;2023-07-02T00:16:37;6.57;;;4.60;;
19043;SDS011;9654;52.302;8.120;2023-07-02T00:19:05;6.93;;;4.77;;
19043;SDS011;9654;52.302;8.120;2023-07-02T00:21:32;9.53;;;5.70;;
19043;SDS011;9654;52.302;8.120;2023-07-02T00:23:59;11.97;;;5.87;;
19043;SDS011;9654;52.302;8.120;2023-07-02T00:26:27;11.60;;;6.20;;
19043;SDS011;9654;52.302;8.120;2023-07-02T00:28:54;14.70;;;7.50;;
19043;SDS011;9654;52.302;8.120;2023-07-02T00:31:22;9.93;;;6.50;;
19043;SDS011;9654;52.302;8.120;2023-07-02T00:33:51;10.67;;;6.37;;
19043;SDS011;9654;52.302;8.120;2023-07-02T00:36:17;10.17;;;7.37;;
19043;SDS011;9654;52.302;8.120;2023-07-02T00:38:45;11.17;;;7.17;;
19043;SDS011;9654;52.302;8.120;2023-07-02T00:41:12;13.60;;;7.73;;
19043;SDS011;9654;52.302;8.120;2023-07-02T00:43:39;13.37;;;7.17;;
19043;SDS011;9654;52.302;8.120;2023-07-02T00:46:08;11.87;;;7.37;;
19043;SDS011;9654;52.302;8.120;2023-07-02T00:48:38;13.67;;;7.60;;
19043;SDS011;9654;52.302;8.120;2023-07-02T00:51:06;12.43;;;7.93;;
19043;SDS011;9654;52.302;8.120;2023-07-02T00:53:33;12.30;;;8.13;;
19043;SDS011;9654;52.302;8.120;2023-07-02T00:56:00;11.17;;;8.40;;
19043;SDS011;9654;52.302;8.120;2023-07-02T00:58:27;15.60;;;7.97;;
19043;SDS011;9654;52.302;8.120;2023-07-02T01:00:54;16.83;;;8.17;;
19043;SDS011;9654;52.302;8.120;2023-07-02T01:03:22;8.00;;;7.20;;
19043;SDS011;9654;52.302;8.120;2023-07-02T01:05:49;15.03;;;7.90;;
19043;SDS011;9654;52.302;8.120;2023-07-02T01:08:17;9.83;;;7.73;;
19043;SDS011;9654;52.302;8.120;2023-07-02T01:10:43;13.67;;;8.60;;
19043;SDS011;9654;52.302;8.120;2023-07-02T01:13:11;14.93;;;9.10;;
19043;SDS011;9654;52.302;8.120;2023-07-02T01:15:40;18.17;;;8.60;;
19043;SDS011;9654;52.302;8.120;2023-07-02T01:18:09;17.40;;;8.23;;
19043;SDS011;9654;52.302;8.120;2023-07-02T01:20:39;12.40;;;8.13;;
19043;SDS011;9654;52.302;8.120;2023-07-02T01:23:06;17.00;;;8.73;;
19043;SDS011;9654;52.302;8.120;2023-07-02T01:25:34;14.40;;;8.27;;
19043;SDS011;9654;52.302;8.120;2023-07-02T01:28:02;14.10;;;8.50;;
19043;SDS011;9654;52.302;8.120;2023-07-02T01:30:28;14.90;;;8.60;;
19043;SDS011;9654;52.302;8.120;2023-07-02T01:32:55;11.83;;;8.20;;
19043;SDS011;9654;52.302;8.120;2023-07-02T01:35:22;9.47;;;8.23;;
19043;SDS011;9654;52.302;8.120;2023-07-02T01:37:50;8.87;;;7.93;;
19043;SDS011;9654;52.302;8.120;2023-07-02T01:40:17;13.57;;;7.13;;
19043;SDS011;9654;52.302;8.120;2023-07-02T01:42:44;17.77;;;7.83;;
19043;SDS011;9654;52.302;8.120;2023-07-02T01:45:11;13.07;;;7.50;;
19043;SDS011;9654;52.302;8.120;2023-07-02T01:47:38;9.13;;;7.13;;
19043;SDS011;9654;52.302;8.120;2023-07-02T01:50:05;12.63;;;7.57;;
19043;SDS011;9654;52.302;8.120;2023-07-02T01:52:32;11.23;;;7.33;;
19043;SDS011;9654;52.302;8.120;2023-07-02T01:55:01;10.07;;;6.90;;
19043;SDS011;9654;52.302;8.120;2023-07-02T01:57:28;15.03;;;8.03;;
19043;SDS011;9654;52.302;8.120;2023-07-02T01:59:56;15.33;;;8.23;;
19043;SDS011;9654;52.302;8.120;2023-07-02T02:02:23;18.00;;;9.13;;
19043;SDS011;9654;52.302;8.120;2023-07-02T02:04:50;15.93;;;8.37;;
19043;SDS011;9654;52.302;8.120;2023-07-02T02:07:17;16.37;;;9.83;;
19043;SDS011;9654;52.302;8.120;2023-07-02T02:09:44;13.63;;;8.50;;
19043;SDS011;9654;52.302;8.120;2023-07-02T02:12:12;15.57;;;9.20;;
19043;SDS011;9654;52.302;8.120;2023-07-02T02:14:39;13.57;;;9.20;;
19043;SDS011;9654;52.302;8.120;2023-07-02T02:17:06;10.80;;;9.33;;
19043;SDS011;9654;52.302;8.120;2023-07-02T02:19:33;22.20;;;10.90;;
19043;SDS011;9654;52.302;8.120;2023-07-02T02:22:00;18.17;;;10.33;;
19043;SDS011;9654;52.302;8.120;2023-07-02T02:24:27;18.60;;;9.17;;
19043;SDS011;9654;52.302;8.120;2023-07-02T02:26:53;20.73;;;10.57;;
19043;SDS011;9654;52.302;8.120;2023-07-02T02:29:22;19.83;;;10.13;;
19043;SDS011;9654;52.302;8.120;2023-07-02T02:31:48;19.40;;;9.27;;
19043;SDS011;9654;52.302;8.120;2023-07-02T02:34:15;19.80;;;9.20;;
19043;SDS011;9654;52.302;8.120;2023-07-02T02:36:42;18.67;;;9.47;;
19043;SDS011;9654;52.302;8.120;2023-07-02T02:39:08;15.97;;;8.93;;
19043;SDS011;9654;52.302;8.120;2023-07-02T02:41:35;13.37;;;8.47;;
19043;SDS011;9654;52.302;8.120;2023-07-02T02:44:02;15.93;;;9.33;;
19043;SDS011;9654;52.302;8.120;2023-07-02T02:46:30;16.23;;;8.77;;
19043;SDS011;9654;52.302;8.120;2023-07-02T02:48:57;14.23;;;8.07;;
19043;SDS011;9654;52.302;8.120;2023-07-02T02:51:24;13.90;;;7.50;;
19043;SDS011;9654;52.302;8.120;2023-07-02T02:53:51;13.23;;;7.40;;
19043;SDS011;9654;52.302;8.120;2023-07-02T02:56:17;15.33;;;6.87;;
19043;SDS011;9654;52.302;8.120;2023-07-02T02:58:44;12.97;;;7.00;;
19043;SDS011;9654;52.302;8.120;2023-07-02T03:01:11;13.67;;;8.00;;
19043;SDS011;9654;52.302;8.120;2023-07-02T03:03:39;13.17;;;7.67;;
19043;SDS011;9654;52.302;8.120;2023-07-02T03:06:10;16.90;;;8.00;;
19043;SDS011;9654;52.302;8.120;2023-07-02T03:08:38;17.47;;;8.00;;
19043;SDS011;9654;52.302;8.120;2023-07-02T03:11:05;15.90;;;6.87;;
19043;SDS011;9654;52.302;8.120;2023-07-02T03:13:32;13.80;;;7.37;;
19043;SDS011;9654;52.302;8.120;2023-07-02T03:15:59;13.07;;;7.97;;
19043;SDS011;9654;52.302;8.120;2023-07-02T03:18:25;13.90;;;7.23;;
19043;SDS011;9654;52.302;8.120;2023-07-02T03:20:54;15.47;;;6.97;;
19043;SDS011;9654;52.302;8.120;2023-07-02T03:23:20;12.97;;;8.40;;
19043;SDS011;9654;52.302;8.120;2023-07-02T03:25:47;13.80;;;7.27;;
19043;SDS011;9654;52.302;8.120;2023-07-02T03:28:14;22.20;;;7.50;;
19043;SDS011;9654;52.302;8.120;2023-07-02T03:30:41;13.27;;;7.10;;
19043;SDS011;9654;52.302;8.120;2023-07-02T03:33:08;17.47;;;7.40;;
19043;SDS011;9654;52.302;8.120;2023-07-02T03:35:35;17.07;;;6.90;;
19043;SDS011;9654;52.302;8.120;2023-07-02T03:38:04;11.57;;;7.37;;
19043;SDS011;9654;52.302;8.120;2023-07-02T03:40:31;13.97;;;6.93;;
19043;SDS011;9654;52.302;8.120;2023-07-02T03:42:57;12.10;;;7.23;;
19043;SDS011;9654;52.302;8.120;2023-07-02T03:45:24;14.17;;;7.37;;
19043;SDS011;9654;52.302;8.120;2023-07-02T03:47:51;11.77;;;6.13;;
19043;SDS011;9654;52.302;8.120;2023-07-02T03:50:18;13.87;;;7.30;;
19043;SDS011;9654;52.302;8.120;2023-07-02T03:52:45;14.20;;;6.97;;
19043;SDS011;9654;52.302;8.120;2023-07-02T03:55:13;22.63;;;8.23;;
19043;SDS011;9654;52.302;8.120;2023-07-02T03:57:40;15.53;;;7.67;;
19043;SDS011;9654;52.302;8.120;2023-07-02T04:00:07;17.50;;;6.33;;
19043;SDS011;9654;52.302;8.120;2023-07-02T04:02:36;15.37;;;7.10;;
19043;SDS011;9654;52.302;8.120;2023-07-02T04:05:03;17.97;;;7.17;;
19043;SDS011;9654;52.302;8.120;2023-07-02T04:07:31;11.73;;;5.90;;
19043;SDS011;9654;52.302;8.120;2023-07-02T04:09:57;17.13;;;6.77;;
19043;SDS011;9654;52.302;8.120;2023-07-02T04:12:25;17.90;;;6.50;;
19043;SDS011;9654;52.302;8.120;2023-07-02T04:14:52;11.83;;;6.73;;
19043;SDS011;9654;52.302;8.120;2023-07-02T04:17:19;12.17;;;6.13;;
19043;SDS011;9654;52.302;8.120;2023-07-02T04:19:46;12.20;;;7.03;;
19043;SDS011;9654;52.302;8.120;2023-07-02T04:22:13;18.87;;;6.93;;
19043;SDS011;9654;52.302;8.120;2023-07-02T04:24:40;13.10;;;6.73;;
19043;SDS011;9654;52.302;8.120;2023-07-02T04:27:07;12.27;;;6.50;;
19043;SDS011;9654;52.302;8.120;2023-07-02T04:29:35;13.13;;;6.40;;
19043;SDS011;9654;52.302;8.120;2023-07-02T04:32:02;13.93;;;7.37;;
19043;SDS011;9654;52.302;8.120;2023-07-02T04:34:29;16.23;;;6.97;;
19043;SDS011;9654;52.302;8.120;2023-07-02T04:36:56;11.77;;;6.40;;
19043;SDS011;9654;52.302;8.120;2023-07-02T04:39:22;17.20;;;7.00;;
19043;SDS011;9654;52.302;8.120;2023-07-02T04:41:49;19.83;;;6.57;;
19043;SDS011;9654;52.302;8.120;2023-07-02T04:44:17;12.93;;;7.17;;
19043;SDS011;9654;52.302;8.120;2023-07-02T04:46:47;21.20;;;8.00;;
19043;SDS011;9654;52.302;8.120;2023-07-02T04:49:14;16.40;;;7.10;;
19043;SDS011;9654;52.302;8.120;2023-07-02T04:51:41;15.50;;;7.03;;
19043;SDS011;9654;52.302;8.120;2023-07-02T04:54:08;14.73;;;7.13;;
19043;SDS011;9654;52.302;8.120;2023-07-02T04:56:35;19.13;;;7.07;;
19043;SDS011;9654;52.302;8.120;2023-07-02T04:59:02;16.67;;;6.87;;
19043;SDS011;9654;52.302;8.120;2023-07-02T05:01:28;17.03;;;6.33;;
19043;SDS011;9654;52.302;8.120;2023-07-02T05:03:56;13.00;;;6.57;;
19043;SDS011;9654;52.302;8.120;2023-07-02T05:06:23;17.43;;;7.47;;
19043;SDS011;9654;52.302;8.120;2023-07-02T05:08:50;13.83;;;6.43;;
19043;SDS011;9654;52.302;8.120;2023-07-02T05:11:17;11.57;;;6.13;;
19043;SDS011;9654;52.302;8.120;2023-07-02T05:13:44;15.93;;;6.47;;
19043;SDS011;9654;52.302;8.120;2023-07-02T05:16:11;19.53;;;7.37;;
19043;SDS011;9654;52.302;8.120;2023-07-02T05:18:38;15.20;;;6.37;;
19043;SDS011;9654;52.302;8.120;2023-07-02T05:21:06;14.97;;;6.40;;
19043;SDS011;9654;52.302;8.120;2023-07-02T05:23:33;14.80;;;6.90;;
19043;SDS011;9654;52.302;8.120;2023-07-02T05:26:00;22.43;;;8.17;;
19043;SDS011;9654;52.302;8.120;2023-07-02T05:28:27;15.60;;;6.70;;
19043;SDS011;9654;52.302;8.120;2023-07-02T05:30:54;22.80;;;6.87;;
19043;SDS011;9654;52.302;8.120;2023-07-02T05:33:21;13.00;;;6.40;;
19043;SDS011;9654;52.302;8.120;2023-07-02T05:35:48;22.97;;;8.10;;
19043;SDS011;9654;52.302;8.120;2023-07-02T05:38:16;24.40;;;7.77;;
19043;SDS011;9654;52.302;8.120;2023-07-02T05:40:44;20.77;;;7.30;;
19043;SDS011;9654;52.302;8.120;2023-07-02T05:43:11;20.57;;;7.93;;
19043;SDS011;9654;52.302;8.120;2023-07-02T05:45:38;18.63;;;6.63;;
19043;SDS011;9654;52.302;8.120;2023-07-02T05:48:05;16.83;;;6.93;;
19043;SDS011;9654;52.302;8.120;2023-07-02T05:50:34;19.70;;;6.40;;
19043;SDS011;9654;52.302;8.120;2023-07-02T05:53:01;17.40;;;6.53;;
19043;SDS011;9654;52.302;8.120;2023-07-02T05:55:31;15.43;;;7.00;;
19043;SDS011;9654;52.302;8.120;2023-07-02T05:57:58;20.23;;;7.40;;
19043;SDS011;9654;52.302;8.120;2023-07-02T06:00:26;21.60;;;8.00;;
19043;SDS011;9654;52.302;8.120;2023-07-02T06:02:53;20.43;;;6.80;;
19043;SDS011;9654;52.302;8.120;2023-07-02T06:05:20;25.33;;;7.57;;
19043;SDS011;9654;52.302;8.120;2023-07-02T06:07:47;25.77;;;7.67;;
19043;SDS011;9654;52.302;8.120;2023-07-02T06:10:14;19.13;;;6.30;;
19043;SDS011;9654;52.302;8.120;2023-07-02T06:12:43;24.20;;;7.20;;
19043;SDS011;9654;52.302;8.120;2023-07-02T06:15:10;21.13;;;7.87;;
19043;SDS011;9654;52.302;8.120;2023-07-02T06:17:37;23.87;;;8.27;;
19043;SDS011;9654;52.302;8.120;2023-07-02T06:20:05;19.93;;;7.10;;
19043;SDS011;9654;52.302;8.120;2023-07-02T06:22:32;19.87;;;8.13;;
19043;SDS011;9654;52.302;8.120;2023-07-02T06:24:59;16.43;;;6.77;;
19043;SDS011;9654;52.302;8.120;2023-07-02T06:27:26;25.67;;;7.07;;
19043;SDS011;9654;52.302;8.120;2023-07-02T06:29:54;23.27;;;7.07;;
19043;SDS011;9654;52.302;8.120;2023-07-02T06:32:21;22.17;;;7.47;;
19043;SDS011;9654;52.302;8.120;2023-07-02T06:34:47;22.00;;;6.97;;
19043;SDS011;9654;52.302;8.120;2023-07-02T06:37:14;22.57;;;7.50;;
19043;SDS011;9654;52.302;8.120;2023-07-02T06:39:41;21.73;;;6.97;;
19043;SDS011;9654;52.302;8.120;2023-07-02T06:42:08;33.27;;;8.63;;
19043;SDS011;9654;52.302;8.120;2023-07-02T06:44:34;15.93;;;6.20;;
19043;SDS011;9654;52.302;8.120;2023-07-02T06:47:03;21.90;;;6.63;;
19043;SDS011;9654;52.302;8.120;2023-07-02T06:49:30;20.20;;;7.00;;
19043;SDS011;9654;52.302;8.120;2023-07-02T06:51:56;27.30;;;7.57;;
19043;SDS011;9654;52.302;8.120;2023-07-02T06:54:25;19.20;;;7.37;;
19043;SDS011;9654;52.302;8.120;2023-07-02T06:56:52;23.53;;;7.57;;
19043;SDS011;9654;52.302;8.120;2023-07-02T06:59:19;21.30;;;7.47;;
19043;SDS011;9654;52.302;8.120;2023-07-02T07:01:46;21.23;;;8.07;;
19043;SDS011;9654;52.302;8.120;2023-07-02T07:04:14;26.13;;;8.00;;
19043;SDS011;9654;52.302;8.120;2023-07-02T07:06:41;25.33;;;7.17;;
19043;SDS011;9654;52.302;8.120;2023-07-02T07:09:08;21.83;;;7.43;;
19043;SDS011;9654;52.302;8.120;2023-07-02T07:11:35;22.10;;;7.33;;
19043;SDS011;9654;52.302;8.120;2023-07-02T07:14:02;21.07;;;7.43;;
19043;SDS011;9654;52.302;8.120;2023-07-02T07:16:29;22.57;;;7.97;;
19043;SDS011;9654;52.302;8.120;2023-07-02T07:18:55;20.70;;;7.63;;
19043;SDS011;9654;52.302;8.120;2023-07-02T07:21:23;23.40;;;7.60;;
19043;SDS011;9654;52.302;8.120;2023-07-02T07:23:50;24.47;;;8.30;;
19043;SDS011;9654;52.302;8.120;2023-07-02T07:26:17;23.13;;;7.30;;
19043;SDS011;9654;52.302;8.120;2023-07-02T07:28:44;22.77;;;7.63;;
19043;SDS011;9654;52.302;8.120;2023-07-02T07:31:10;23.43;;;8.07;;
19043;SDS011;9654;52.302;8.120;2023-07-02T07:33:37;23.03;;;7.93;;
19043;SDS011;9654;52.302;8.120;2023-07-02T07:36:04;20.40;;;7.73;;
19043;SDS011;9654;52.302;8.120;2023-07-02T07:38:32;23.10;;;7.67;;
19043;SDS011;9654;52.302;8.120;2023-07-02T07:40:59;24.83;;;9.03;;
19043;SDS011;9654;52.302;8.120;2023-07-02T07:43:26;23.63;;;7.77;;
19043;SDS011;9654;52.302;8.120;2023-07-02T07:45:53;22.67;;;8.47;;
19043;SDS011;9654;52.302;8.120;2023-07-02T07:48:20;21.43;;;7.00;;
19043;SDS011;9654;52.302;8.120;2023-07-02T07:50:47;20.60;;;7.37;;
19043;SDS011;9654;52.302;8.120;2023-07-02T07:53:14;27.93;;;8.83;;
19043;SDS011;9654;52.302;8.120;2023-07-02T07:55:42;20.13;;;7.73;;
19043;SDS011;9654;52.302;8.120;2023-07-02T07:58:09;23.00;;;7.83;;
19043;SDS011;9654;52.302;8.120;2023-07-02T08:00:35;15.67;;;7.53;;
19043;SDS011;9654;52.302;8.120;2023-07-02T08:03:02;19.43;;;7.23;;
19043;SDS011;9654;52.302;8.120;2023-07-02T08:05:29;16.77;;;6.90;;
19043;SDS011;9654;52.302;8.120;2023-07-02T08:07:56;19.03;;;7.60;;
19043;SDS011;9654;52.302;8.120;2023-07-02T08:10:23;21.70;;;7.37;;
19043;SDS011;9654;52.302;8.120;2023-07-02T08:12:54;18.27;;;7.17;;
19043;SDS011;9654;52.302;8.120;2023-07-02T08:15:21;15.33;;;6.20;;
19043;SDS011;9654;52.302;8.120;2023-07-02T08:17:48;18.10;;;6.83;;
19043;SDS011;9654;52.302;8.120;2023-07-02T08:20:16;15.47;;;6.93;;
19043;SDS011;9654;52.302;8.120;2023-07-02T08:22:44;20.17;;;6.90;;
19043;SDS011;9654;52.302;8.120;2023-07-02T08:25:10;15.33;;;6.77;;
19043;SDS011;9654;52.302;8.120;2023-07-02T08:27:37;18.10;;;6.70;;
19043;SDS011;9654;52.302;8.120;2023-07-02T08:30:06;15.43;;;6.03;;
19043;SDS011;9654;52.302;8.120;2023-07-02T08:32:33;16.47;;;7.17;;
19043;SDS011;9654;52.302;8.120;2023-07-02T08:35:00;16.27;;;5.70;;
19043;SDS011;9654;52.302;8.120;2023-07-02T08:37:27;16.47;;;6.30;;
19043;SDS011;9654;52.302;8.120;2023-07-02T08:39:54;16.27;;;5.80;;
19043;SDS011;9654;52.302;8.120;2023-07-02T08:42:20;12.40;;;6.07;;
19043;SDS011;9654;52.302;8.120;2023-07-02T08:44:47;16.87;;;5.90;;
19043;SDS011;9654;52.302;8.120;2023-07-02T08:47:20;17.07;;;6.23;;
19043;SDS011;9654;52.302;8.120;2023-07-02T08:49:48;15.20;;;5.93;;
19043;SDS011;9654;52.302;8.120;2023-07-02T08:52:16;15.77;;;6.00;;
19043;SDS011;9654;52.302;8.120;2023-07-02T08:54:44;13.23;;;5.43;;
19043;SDS011;9654;52.302;8.120;2023-07-02T08:57:11;14.03;;;5.90;;
19043;SDS011;9654;52.302;8.120;2023-07-02T08:59:38;16.23;;;6.17;;
19043;SDS011;9654;52.302;8.120;2023-07-02T09:02:04;15.47;;;5.37;;
19043;SDS011;9654;52.302;8.120;2023-07-02T09:04:33;13.90;;;6.30;;
19043;SDS011;9654;52.302;8.120;2023-07-02T09:07:03;13.77;;;6.73;;
19043;SDS011;9654;52.302;8.120;2023-07-02T09:09:31;25.97;;;6.73;;
19043;SDS011;9654;52.302;8.120;2023-07-02T09:11:58;15.23;;;5.63;;
19043;SDS011;9654;52.302;8.120;2023-07-02T09:14:25;16.27;;;6.27;;
19043;SDS011;9654;52.302;8.120;2023-07-02T09:17:02;17.27;;;5.70;;
19043;SDS011;9654;52.302;8.120;2023-07-02T09:19:30;13.83;;;5.47;;
19043;SDS011;9654;52.302;8.120;2023-07-02T09:21:59;14.73;;;5.97;;
19043;SDS011;9654;52.302;8.120;2023-07-02T09:24:26;15.53;;;5.33;;
19043;SDS011;9654;52.302;8.120;2023-07-02T09:26:55;13.60;;;5.97;;
19043;SDS011;9654;52.302;8.120;2023-07-02T09:29:23;12.37;;;5.50;;
19043;SDS011;9654;52.302;8.120;2023-07-02T09:31:52;13.00;;;6.07;;
19043;SDS011;9654;52.302;8.120;2023-07-02T09:34:18;14.30;;;5.67;;
19043;SDS011;9654;52.302;8.120;2023-07-02T09:36:45;9.00;;;4.80;;
19043;SDS011;9654;52.302;8.120;2023-07-02T09:39:14;9.73;;;5.17;;
19043;SDS011;9654;52.302;8.120;2023-07-02T09:41:47;17.10;;;5.80;;
19043;SDS011;9654;52.302;8.120;2023-07-02T09:44:16;17.93;;;5.77;;
19043;SDS011;9654;52.302;8.120;2023-07-02T09:46:45;13.63;;;5.60;;
19043;SDS011;9654;52.302;8.120;2023-07-02T09:49:17;15.67;;;5.40;;
19043;SDS011;9654;52.302;8.120;2023-07-02T09:51:47;10.50;;;5.50;;
19043;SDS011;9654;52.302;8.120;2023-07-02T09:54:15;12.73;;;5.23;;
19043;SDS011;9654;52.302;8.120;2023-07-02T09:56:45;9.63;;;5.10;;
19043;SDS011;9654;52.302;8.120;2023-07-02T09:59:12;11.80;;;5.00;;
19043;SDS011;9654;52.302;8.120;2023-07-02T10:01:38;14.13;;;5.50;;
19043;SDS011;9654;52.302;8.120;2023-07-02T10:04:12;12.43;;;5.53;;
19043;SDS011;9654;52.302;8.120;2023-07-02T10:06:46;12.50;;;6.03;;
19043;SDS011;9654;52.302;8.120;2023-07-02T10:09:13;16.20;;;5.23;;
19043;SDS011;9654;52.302;8.120;2023-07-02T10:11:42;15.03;;;5.43;;
19043;SDS011;9654;52.302;8.120;2023-07-02T10:14:09;14.47;;;5.43;;
19043;SDS011;9654;52.302;8.120;2023-07-02T10:16:48;14.70;;;5.33;;
19043;SDS011;9654;52.302;8.120;2023-07-02T10:19:18;10.67;;;5.60;;
19043;SDS011;9654;52.302;8.120;2023-07-02T10:21:45;14.73;;;5.43;;
19043;SDS011;9654;52.302;8.120;2023-07-02T10:24:16;12.17;;;5.40;;
19043;SDS011;9654;52.302;8.120;2023-07-02T10:26:53;13.83;;;5.50;;
19043;SDS011;9654;52.302;8.120;2023-07-02T10:29:21;15.70;;;6.27;;
19043;SDS011;9654;52.302;8.120;2023-07-02T10:31:48;11.83;;;6.10;;
19043;SDS011;9654;52.302;8.120;2023-07-02T10:34:15;17.23;;;6.43;;
19043;SDS011;9654;52.302;8.120;2023-07-02T10:36:42;16.23;;;5.57;;
19043;SDS011;9654;52.302;8.120;2023-07-02T10:39:09;18.70;;;5.67;;
19043;SDS011;9654;52.302;8.120;2023-07-02T10:41:37;12.63;;;5.73;;
19043;SDS011;9654;52.302;8.120;2023-07-02T10:44:05;17.03;;;6.00;;
19043;SDS011;9654;52.302;8.120;2023-07-02T10:46:33;19.10;;;6.40;;
19043;SDS011;9654;52.302;8.120;2023-07-02T10:49:00;16.83;;;5.63;;
19043;SDS011;9654;52.302;8.120;2023-07-02T10:51:27;13.83;;;5.80;;
19043;SDS011;9654;52.302;8.120;2023-07-02T10:53:57;13.13;;;6.10;;
19043;SDS011;9654;52.302;8.120;2023-07-02T10:56:25;14.20;;;5.20;;
19043;SDS011;9654;52.302;8.120;2023-07-02T10:58:54;11.87;;;5.50;;
19043;SDS011;9654;52.302;8.120;2023-07-02T11:01:24;13.67;;;6.17;;
19043;SDS011;9654;52.302;8.120;2023-07-02T11:03:56;12.83;;;5.57;;
19043;SDS011;9654;52.302;8.120;2023-07-02T11:06:24;12.20;;;5.37;;
19043;SDS011;9654;52.302;8.120;2023-07-02T11:08:51;13.10;;;6.87;;
19043;SDS011;9654;52.302;8.120;2023-07-02T11:11:19;9.93;;;5.40;;
19043;SDS011;9654;52.302;8.120;2023-07-02T11:13:47;16.13;;;6.40;;
19043;SDS011;9654;52.302;8.120;2023-07-02T11:16:20;13.77;;;5.93;;
19043;SDS011;9654;52.302;8.120;2023-07-02T11:18:51;12.97;;;5.73;;
19043;SDS011;9654;52.302;8.120;2023-07-02T11:21:19;14.70;;;5.50;;
19043;SDS011;9654;52.302;8.120;2023-07-02T11:23:46;11.13;;;5.27;;
19043;SDS011;9654;52.302;8.120;2023-07-02T11:26:12;10.03;;;5.83;;
19043;SDS011;9654;52.302;8.120;2023-07-02T11:28:47;12.33;;;5.30;;
19043;SDS011;9654;52.302;8.120;2023-07-02T11:31:25;10.43;;;4.83;;
19043;SDS011;9654;52.302;8.120;2023-07-02T11:33:52;12.00;;;4.63;;
19043;SDS011;9654;52.302;8.120;2023-07-02T11:36:20;12.40;;;5.43;;
19043;SDS011;9654;52.302;8.120;2023-07-02T11:38:48;10.60;;;5.17;;
19043;SDS011;9654;52.302;8.120;2023-07-02T11:41:16;10.90;;;4.93;;
19043;SDS011;9654;52.302;8.120;2023-07-02T11:43:43;10.57;;;5.00;;
19043;SDS011;9654;52.302;8.120;2023-07-02T11:46:10;13.10;;;4.90;;
19043;SDS011;9654;52.302;8.120;2023-07-02T11:48:38;14.63;;;4.80;;
19043;SDS011;9654;52.302;8.120;2023-07-02T11:51:05;13.73;;;5.43;;
19043;SDS011;9654;52.302;8.120;2023-07-02T11:53:32;10.23;;;4.60;;
19043;SDS011;9654;52.302;8.120;2023-07-02T11:55:58;12.80;;;4.50;;
19043;SDS011;9654;52.302;8.120;2023-07-02T11:58:25;10.40;;;4.63;;
19043;SDS011;9654;52.302;8.120;2023-07-02T12:00:52;10.03;;;4.70;;
19043;SDS011;9654;52.302;8.120;2023-07-02T12:03:19;11.20;;;4.60;;
19043;SDS011;9654;52.302;8.120;2023-07-02T12:05:47;12.87;;;4.40;;
19043;SDS011;9654;52.302;8.120;2023-07-02T12:08:13;15.37;;;4.57;;
19043;SDS011;9654;52.302;8.120;2023-07-02T12:10:40;11.53;;;4.57;;
19043;SDS011;9654;52.302;8.120;2023-07-02T12:13:07;11.63;;;4.57;;
19043;SDS011;9654;52.302;8.120;2023-07-02T12:15:34;13.37;;;4.83;;
19043;SDS011;9654;52.302;8.120;2023-07-02T12:18:01;10.43;;;4.47;;
19043;SDS011;9654;52.302;8.120;2023-07-02T12:20:27;9.50;;;4.17;;
19043;SDS011;9654;52.302;8.120;2023-07-02T12:22:55;7.17;;;3.67;;
19043;SDS011;9654;52.302;8.120;2023-07-02T12:25:22;9.43;;;3.83;;
19043;SDS011;9654;52.302;8.120;2023-07-02T12:27:49;8.00;;;4.13;;
19043;SDS011;9654;52.302;8.120;2023-07-02T12:30:16;6.83;;;3.63;;
19043;SDS011;9654;52.302;8.120;2023-07-02T12:32:43;10.37;;;4.90;;
19043;SDS011;9654;52.302;8.120;2023-07-02T12:35:10;8.80;;;4.27;;
19043;SDS011;9654;52.302;8.120;2023-07-02T12:37:42;11.53;;;4.20;;
19043;SDS011;9654;52.302;8.120;2023-07-02T12:40:11;13.27;;;4.33;;
19043;SDS011;9654;52.302;8.120;2023-07-02T12:42:40;7.83;;;4.20;;
19043;SDS011;9654;52.302;8.120;2023-07-02T12:45:07;10.80;;;4.40;;
19043;SDS011;9654;52.302;8.120;2023-07-02T12:47:35;10.77;;;4.60;;
19043;SDS011;9654;52.302;8.120;2023-07-02T12:50:02;9.80;;;4.77;;
19043;SDS011;9654;52.302;8.120;2023-07-02T12:52:29;8.27;;;4.03;;
19043;SDS011;9654;52.302;8.120;2023-07-02T12:54:56;11.30;;;4.90;;
19043;SDS011;9654;52.302;8.120;2023-07-02T12:57:24;9.40;;;4.37;;
19043;SDS011;9654;52.302;8.120;2023-07-02T12:59:52;10.97;;;4.20;;
19043;SDS011;9654;52.302;8.120;2023-07-02T13:02:18;9.50;;;4.03;;
19043;SDS011;9654;52.302;8.120;2023-07-02T13:04:46;10.23;;;4.77;;
19043;SDS011;9654;52.302;8.120;2023-07-02T13:07:12;8.87;;;4.37;;
19043;SDS011;9654;52.302;8.120;2023-07-02T13:09:39;13.17;;;4.50;;
19043;SDS011;9654;52.302;8.120;2023-07-02T13:12:06;10.43;;;4.67;;
19043;SDS011;9654;52.302;8.120;2023-07-02T13:14:35;8.83;;;4.10;;
19043;SDS011;9654;52.302;8.120;2023-07-02T13:17:02;10.63;;;4.20;;
19043;SDS011;9654;52.302;8.120;2023-07-02T13:19:30;8.63;;;4.20;;
19043;SDS011;9654;52.302;8.120;2023-07-02T13:21:57;8.97;;;4.03;;
19043;SDS011;9654;52.302;8.120;2023-07-02T13:24:24;9.57;;;4.03;;
19043;SDS011;9654;52.302;8.120;2023-07-02T13:26:50;10.20;;;4.57;;
19043;SDS011;9654;52.302;8.120;2023-07-02T13:29:17;5.07;;;3.00;;
19043;SDS011;9654;52.302;8.120;2023-07-02T13:31:45;7.50;;;3.80;;
19043;SDS011;9654;52.302;8.120;2023-07-02T13:34:12;8.40;;;3.73;;
19043;SDS011;9654;52.302;8.120;2023-07-02T13:36:39;6.53;;;3.67;;
19043;SDS011;9654;52.302;8.120;2023-07-02T13:39:06;5.83;;;3.30;;
19043;SDS011;9654;52.302;8.120;2023-07-02T13:41:33;6.33;;;3.73;;
19043;SDS011;9654;52.302;8.120;2023-07-02T13:44:00;8.20;;;3.40;;
19043;SDS011;9654;52.302;8.120;2023-07-02T13:46:26;8.43;;;3.50;;
19043;SDS011;9654;52.302;8.120;2023-07-02T13:48:55;7.67;;;3.23;;
19043;SDS011;9654;52.302;8.120;2023-07-02T13:51:21;5.77;;;3.70;;
19043;SDS011;9654;52.302;8.120;2023-07-02T13:53:48;7.67;;;3.43;;
19043;SDS011;9654;52.302;8.120;2023-07-02T13:56:15;8.40;;;3.17;;
19043;SDS011;9654;52.302;8.120;2023-07-02T13:59:02;9.47;;;3.83;;
19043;SDS011;9654;52.302;8.120;2023-07-02T14:01:30;4.50;;;2.80;;
19043;SDS011;9654;52.302;8.120;2023-07-02T14:03:57;7.07;;;3.30;;
19043;SDS011;9654;52.302;8.120;2023-07-02T14:06:24;7.37;;;3.60;;
19043;SDS011;9654;52.302;8.120;2023-07-02T14:08:51;4.00;;;3.07;;
19043;SDS011;9654;52.302;8.120;2023-07-02T14:11:18;5.77;;;3.10;;
19043;SDS011;9654;52.302;8.120;2023-07-02T14:13:45;7.00;;;3.70;;
19043;SDS011;9654;52.302;8.120;2023-07-02T14:16:14;7.43;;;3.40;;
19043;SDS011;9654;52.302;8.120;2023-07-02T14:18:41;9.97;;;3.50;;
19043;SDS011;9654;52.302;8.120;2023-07-02T14:21:08;9.50;;;3.90;;
19043;SDS011;9654;52.302;8.120;2023-07-02T14:23:35;8.83;;;3.67;;
19043;SDS011;9654;52.302;8.120;2023-07-02T14:26:02;6.87;;;3.23;;
19043;SDS011;9654;52.302;8.120;2023-07-02T14:28:28;6.50;;;3.40;;
19043;SDS011;9654;52.302;8.120;2023-07-02T14:30:55;7.83;;;3.40;;
19043;SDS011;9654;52.302;8.120;2023-07-02T14:33:24;8.00;;;3.83;;
19043;SDS011;9654;52.302;8.120;2023-07-02T14:35:52;7.13;;;3.40;;
19043;SDS011;9654;52.302;8.120;2023-07-02T14:38:19;7.03;;;3.73;;
19043;SDS011;9654;52.302;8.120;2023-07-02T14:40:47;7.17;;;3.53;;
19043;SDS011;9654;52.302;8.120;2023-07-02T14:43:13;7.03;;;3.20;;
19043;SDS011;9654;52.302;8.120;2023-07-02T14:45:45;5.93;;;3.57;;
19043;SDS011;9654;52.302;8.120;2023-07-02T14:48:13;11.33;;;4.70;;
19043;SDS011;9654;52.302;8.120;2023-07-02T14:50:45;7.30;;;4.00;;
19043;SDS011;9654;52.302;8.120;2023-07-02T14:53:16;8.03;;;3.33;;